Time;durP1;ratioP1;P1;durP2;ratioP2;P2;SDS_P1;SDS_P2;PMS_P1;PMS_P2;Temp;Humidity;BMP_temperature;BMP_pressure;BME280_temperature;BME280_humidity;BME280_pressure;Samples;Min_cycle;Max_cycle;Signal;HPM_P1;HPM_P2
2023/02/25 01:44:17;;;;;;;2.23;1.57;;;;;;;9.42;100.00;97498.16;6242308;23;20227;-81
2023/02/25 01:46:48;;;;;;;1.97;1.47;;;;;;;9.29;100.00;97507.44;6244016;23;20202;-81
2023/02/25 02:04:18;;;;;;;2.20;1.30;;;;;;;8.86;100.00;97534.53;6187559;22;20263;-83
2023/02/25 02:06:48;;;;;;;1.00;0.90;;;;;;;8.77;100.00;97526.19;6188469;23;20186;-82
2023/02/25 02:09:24;;;;;;;0.67;0.60;;;;;;;8.74;100.00;97534.72;6187522;23;20197;-83
2023/02/25 03:18:17;;;;;;;0.20;0.20;;;;;;;6.86;100.00;97611.13;6241674;23;20196;-82
2023/02/25 03:20:57;;;;;;;0.20;0.20;;;;;;;6.79;100.00;97637.13;6194024;23;20149;-81
2023/02/25 03:23:41;;;;;;;0.20;0.20;;;;;;;6.83;100.00;97632.94;6217819;23;20246;-82
2023/02/25 03:26:19;;;;;;;1.10;0.20;;;;;;;7.01;100.00;97650.50;6216530;23;20264;-82
2023/02/25 03:28:52;;;;;;;0.20;0.17;;;;;;;7.08;100.00;97654.59;6217776;23;20221;-81
2023/02/25 03:31:37;;;;;;;0.30;0.13;;;;;;;6.98;100.00;97664.31;6242055;23;20550;-81
2023/02/25 03:34:19;;;;;;;0.10;0.10;;;;;;;6.94;100.00;97666.66;6219317;23;20228;-81
2023/02/25 03:41:07;;;;;;;0.13;0.10;;;;;;;6.82;100.00;97665.91;6172695;22;20212;-84
2023/02/25 03:43:47;;;;;;;0.73;0.10;;;;;;;6.84;100.00;97671.81;6193374;23;20193;-84
2023/02/25 03:46:17;;;;;;;0.03;0.03;;;;;;;6.75;100.00;97677.78;6241682;22;20252;-82
2023/02/25 03:51:48;;;;;;;0.00;0.00;;;;;;;6.57;100.00;97676.97;6238962;23;20196;-85
2023/02/25 20:51:07;;;;;;;0.80;0.70;;;;;;;3.38;100.00;98247.84;6218310;23;20249;-82
2023/02/25 20:53:41;;;;;;;0.50;0.50;;;;;;;3.49;100.00;98240.09;6185508;23;20165;-81
2023/02/25 20:56:15;;;;;;;0.40;0.40;;;;;;;3.40;100.00;98225.44;6182747;23;20188;-83
2023/02/25 20:58:47;;;;;;;0.50;0.40;;;;;;;3.48;100.00;98216.47;6209181;23;20222;-81
2023/02/25 21:01:17;;;;;;;0.50;0.50;;;;;;;3.36;100.00;98207.53;6208734;23;20180;-82
2023/02/25 21:03:45;;;;;;;0.60;0.50;;;;;;;3.40;100.00;98196.31;6159938;23;20189;-81
2023/02/25 21:06:33;;;;;;;1.03;0.53;;;;;;;3.33;100.00;98186.75;5111880;27;20543;-86
2023/02/25 21:09:03;;;;;;;0.53;0.50;;;;;;;3.48;100.00;98163.50;5093345;28;20219;-89
2023/02/25 21:11:29;;;;;;;1.10;0.60;;;;;;;3.46;100.00;98158.41;5105966;28;20296;-88
2023/02/25 21:13:56;;;;;;;0.80;0.57;;;;;;;3.24;100.00;98210.00;5099409;28;20202;-87
2023/02/25 21:16:24;;;;;;;0.50;0.50;;;;;;;3.34;100.00;98265.97;5089631;28;20667;-87
2023/02/25 21:18:52;;;;;;;0.83;0.60;;;;;;;3.40;100.00;98261.69;5092003;28;20721;-88
2023/02/25 21:21:19;;;;;;;1.13;0.70;;;;;;;3.32;100.00;98246.00;5075512;28;20294;-88
2023/02/25 21:23:48;;;;;;;0.70;0.70;;;;;;;3.32;100.00;98243.38;5077271;28;20267;-86
2023/02/25 21:26:14;;;;;;;0.60;0.60;;;;;;;3.33;100.00;98250.28;5076395;28;20223;-88
2023/02/25 21:28:41;;;;;;;0.73;0.60;;;;;;;3.35;100.00;98253.56;5092250;28;20286;-88
2023/02/25 21:31:10;;;;;;;1.00;0.90;;;;;;;3.41;100.00;98284.47;5076295;28;20200;-87
2023/02/25 21:48:30;;;;;;;0.90;0.90;;;;;;;3.28;100.00;98168.84;5063313;22;20270;-79
2023/02/25 21:50:58;;;;;;;1.10;1.00;;;;;;;3.40;100.00;98177.78;5044735;28;20205;-78
2023/02/25 21:53:26;;;;;;;1.00;1.00;;;;;;;3.38;100.00;98208.94;5039541;28;20299;-78
2023/02/25 21:55:54;;;;;;;0.87;0.87;;;;;;;3.23;100.00;98263.94;5044346;28;20647;-78
2023/02/25 21:58:21;;;;;;;1.57;1.07;;;;;;;3.31;100.00;98274.31;5048345;28;20189;-78
2023/02/25 22:00:49;;;;;;;1.73;0.90;;;;;;;3.40;100.00;98264.34;5038979;28;20200;-79
2023/02/25 22:03:16;;;;;;;1.10;1.00;;;;;;;3.43;100.00;98243.56;5049492;28;20662;-78
2023/02/25 22:05:46;;;;;;;1.13;1.00;;;;;;;3.49;100.00;98226.84;5047313;28;20201;-79
2023/02/25 22:08:13;;;;;;;0.80;0.80;;;;;;;3.38;100.00;98234.59;5044459;28;20185;-78
2023/02/25 22:10:40;;;;;;;1.93;1.27;;;;;;;3.51;100.00;98245.16;5037187;28;20203;-78
2023/02/25 22:13:07;;;;;;;1.20;1.10;;;;;;;3.53;100.00;98246.59;5043550;28;20592;-78
2023/02/25 22:15:34;;;;;;;1.27;1.10;;;;;;;3.46;100.00;98231.72;5051788;28;20193;-78
2023/02/25 22:18:00;;;;;;;1.90;0.90;;;;;;;3.42;100.00;98222.56;5030567;28;20304;-78
2023/02/25 22:20:27;;;;;;;1.30;1.20;;;;;;;3.39;100.00;98223.81;5031319;28;20665;-78
2023/02/25 22:22:56;;;;;;;1.57;1.20;;;;;;;3.34;100.00;98228.09;5040772;28;20675;-79
2023/02/25 22:25:23;;;;;;;1.30;1.20;;;;;;;3.29;100.00;98238.50;5036630;28;20217;-79
2023/02/25 22:27:51;;;;;;;1.07;1.07;;;;;;;3.24;100.00;98278.00;5041148;28;20797;-79
2023/02/25 22:30:17;;;;;;;1.00;1.00;;;;;;;3.24;100.00;98307.13;5035081;28;20197;-79
2023/02/25 22:32:44;;;;;;;1.20;1.10;;;;;;;3.23;100.00;98318.72;5032732;28;20194;-78
2023/02/25 22:35:11;;;;;;;1.47;1.00;;;;;;;3.20;100.00;98298.78;5025174;28;20227;-76
2023/02/25 22:37:37;;;;;;;1.47;1.10;;;;;;;3.30;100.00;98264.78;5033410;28;20324;-76
2023/02/25 22:40:05;;;;;;;1.20;1.10;;;;;;;3.38;100.00;98253.13;5045475;28;20749;-80
2023/02/25 22:42:31;;;;;;;1.27;1.17;;;;;;;3.33;100.00;98258.22;5033040;28;20190;-79
2023/02/25 22:44:58;;;;;;;2.27;1.30;;;;;;;3.30;100.00;98253.38;5032682;28;20216;-78
2023/02/25 22:47:24;;;;;;;0.93;0.93;;;;;;;3.36;100.00;98271.09;5034963;28;20201;-78
2023/02/25 22:50:16;;;;;;;1.33;1.23;;;;;;;3.49;100.00;98279.81;5029707;28;20485;-79
2023/02/25 22:52:43;;;;;;;2.47;1.37;;;;;;;3.43;100.00;98285.91;5030311;28;20324;-78
2023/02/25 22:55:10;;;;;;;1.30;1.20;;;;;;;3.42;100.00;98305.47;5033541;28;20519;-78
2023/02/25 22:57:37;;;;;;;1.73;1.40;;;;;;;3.38;100.00;98312.19;5032372;28;20225;-78
2023/02/25 23:00:15;;;;;;;1.30;1.20;;;;;;;3.41;100.00;98308.31;5036708;28;20193;-78
2023/02/25 23:02:42;;;;;;;1.50;1.40;;;;;;;3.40;100.00;98285.53;5036397;28;20474;-78
2023/02/25 23:05:09;;;;;;;1.00;1.00;;;;;;;3.35;100.00;98261.50;5029115;28;20201;-78
2023/02/25 23:07:36;;;;;;;1.53;1.43;;;;;;;3.35;100.00;98248.25;5035850;28;20310;-78
2023/02/25 23:10:03;;;;;;;1.47;1.30;;;;;;;3.46;100.00;98248.44;5049107;28;20217;-78
2023/02/25 23:12:30;;;;;;;1.20;1.10;;;;;;;3.27;100.00;98262.50;5034146;28;20186;-79
2023/02/25 23:14:56;;;;;;;1.10;1.10;;;;;;;3.31;100.00;98276.19;5028660;28;20186;-78
2023/02/25 23:17:23;;;;;;;1.30;1.20;;;;;;;3.24;100.00;98288.59;5027057;28;20192;-76
2023/02/25 23:19:50;;;;;;;1.00;0.90;;;;;;;3.25;100.00;98282.28;5027635;28;20187;-75
2023/02/25 23:22:23;;;;;;;1.10;1.00;;;;;;;3.28;100.00;98258.03;5027692;28;20924;-75
2023/02/25 23:24:50;;;;;;;1.20;1.10;;;;;;;3.26;100.00;98249.50;5036260;28;20267;-76
2023/02/25 23:27:17;;;;;;;1.30;1.13;;;;;;;3.19;100.00;98240.75;5029203;28;20193;-76
2023/02/25 23:29:43;;;;;;;1.47;1.20;;;;;;;3.24;100.00;98238.31;5027761;28;21050;-76
2023/02/25 23:32:10;;;;;;;1.43;1.10;;;;;;;3.25;100.00;98232.00;5028419;28;20189;-77
2023/02/25 23:34:37;;;;;;;1.30;1.20;;;;;;;3.27;100.00;98240.53;5029032;28;20263;-75
2023/02/25 23:37:03;;;;;;;1.37;1.27;;;;;;;3.20;100.00;98255.63;5031378;28;20196;-76
2023/02/25 23:39:30;;;;;;;1.40;1.30;;;;;;;3.27;100.00;98274.94;5044225;28;20972;-76
2023/02/25 23:41:57;;;;;;;1.43;1.33;;;;;;;3.12;100.00;98290.25;5028063;28;20200;-76
2023/02/25 23:44:24;;;;;;;1.20;1.10;;;;;;;3.16;100.00;98305.50;5028470;28;20193;-76
2023/02/25 23:46:51;;;;;;;1.40;1.30;;;;;;;3.28;100.00;98308.34;5026361;28;20201;-76
2023/02/25 23:49:18;;;;;;;1.50;1.20;;;;;;;3.27;100.00;98312.81;5033740;28;20322;-76
2023/02/25 23:51:46;;;;;;;1.37;1.27;;;;;;;3.22;100.00;98314.47;5025795;28;21113;-76
2023/02/25 23:54:15;;;;;;;1.30;1.20;;;;;;;3.16;100.00;98304.69;5033308;28;20182;-77
2023/02/25 23:56:41;;;;;;;1.47;1.37;;;;;;;3.26;100.00;98291.84;5026362;28;20204;-76
2023/02/25 23:59:09;;;;;;;1.50;1.40;;;;;;;3.20;100.00;98292.66;5020725;28;20817;-76
